Huvudsida
METAR-TAF:

METAR-TAF

Flygplatser :

Lycksele, Sverige

Lycksele flygplats

latitud: 64-32-51N, longitud: 018-43-03E, höjd: 211 m

Aktuellt väderrapport

Denna rapport gjordes för 7 minuter sedan, klockan 18:20 UTC
Vind 3 kt från syd/sydost
Temperatur 4°C
Fuktighet 70%
Tryck 1012 hPa
Sikt 10 km eller mer
Få moln på en höjd av 4300 ft
Spridda moln på en höjd av 5200 ft
skurar i närheten

METAR: ESNL 221820Z 15003KT 9999 VCSH FEW043 SCT052 04/M01 Q1012

Tid: 20:27 (18:27 UTC)


TAF: saknas

Aktuella väderrapporter och prognoser från 4000 flygplatser (METAR- och TAF-rapporter).

De tillgängliga stationerna syns som gula och röda prickar på kartan.

För musen över prickarna för att se namnen på stationerna.

Klicka sedan för att få väderrapporter och prognoser.

För att ändra kartan: Klicka på de gröna knapparna med ett svart kors på för att zooma in; den gröna knappen med ett streck på för att zooma ut; eller på de gröna pilarna för angränsande kartor.


METAR-TAF: